sensor_id;sensor_type;location;lat;lon;timestamp;P1;durP1;ratioP1;P2;durP2;ratioP2
25125;SDS011;13106;50.808;5.670;2023-02-28T00:01:19;7.97;;;7.07;;
25125;SDS011;13106;50.808;5.670;2023-02-28T00:03:45;8.43;;;7.10;;
25125;SDS011;13106;50.808;5.670;2023-02-28T00:06:11;11.07;;;7.35;;
25125;SDS011;13106;50.808;5.670;2023-02-28T00:08:37;8.57;;;6.55;;
25125;SDS011;13106;50.808;5.670;2023-02-28T00:11:08;10.90;;;7.05;;
25125;SDS011;13106;50.808;5.670;2023-02-28T00:13:35;9.52;;;6.50;;
25125;SDS011;13106;50.808;5.670;2023-02-28T00:16:03;11.55;;;6.93;;
25125;SDS011;13106;50.808;5.670;2023-02-28T00:18:29;11.63;;;6.95;;
25125;SDS011;13106;50.808;5.670;2023-02-28T00:20:56;8.05;;;5.90;;
25125;SDS011;13106;50.808;5.670;2023-02-28T00:23:22;10.82;;;6.38;;
25125;SDS011;13106;50.808;5.670;2023-02-28T00:25:48;9.30;;;6.45;;
25125;SDS011;13106;50.808;5.670;2023-02-28T00:28:14;8.88;;;6.10;;
25125;SDS011;13106;50.808;5.670;2023-02-28T00:30:40;9.30;;;6.78;;
25125;SDS011;13106;50.808;5.670;2023-02-28T00:33:06;11.75;;;7.60;;
25125;SDS011;13106;50.808;5.670;2023-02-28T00:35:32;15.43;;;7.00;;
25125;SDS011;13106;50.808;5.670;2023-02-28T00:37:58;9.00;;;6.97;;
25125;SDS011;13106;50.808;5.670;2023-02-28T00:40:24;9.20;;;7.43;;
25125;SDS011;13106;50.808;5.670;2023-02-28T00:42:50;8.25;;;7.07;;
25125;SDS011;13106;50.808;5.670;2023-02-28T00:45:16;12.68;;;7.70;;
25125;SDS011;13106;50.808;5.670;2023-02-28T00:47:42;11.95;;;7.03;;
25125;SDS011;13106;50.808;5.670;2023-02-28T00:50:08;9.65;;;7.50;;
25125;SDS011;13106;50.808;5.670;2023-02-28T00:52:34;11.68;;;7.07;;
25125;SDS011;13106;50.808;5.670;2023-02-28T00:55:00;9.25;;;7.20;;
25125;SDS011;13106;50.808;5.670;2023-02-28T00:57:26;7.85;;;7.05;;
25125;SDS011;13106;50.808;5.670;2023-02-28T00:59:52;10.43;;;7.38;;
25125;SDS011;13106;50.808;5.670;2023-02-28T01:02:22;10.77;;;7.70;;
25125;SDS011;13106;50.808;5.670;2023-02-28T01:04:48;12.70;;;8.02;;
25125;SDS011;13106;50.808;5.670;2023-02-28T01:07:14;9.55;;;7.55;;
25125;SDS011;13106;50.808;5.670;2023-02-28T01:09:41;12.80;;;7.78;;
25125;SDS011;13106;50.808;5.670;2023-02-28T01:12:07;11.18;;;6.93;;
25125;SDS011;13106;50.808;5.670;2023-02-28T01:14:34;9.38;;;7.68;;
25125;SDS011;13106;50.808;5.670;2023-02-28T01:17:00;12.38;;;7.90;;
25125;SDS011;13106;50.808;5.670;2023-02-28T01:19:27;9.05;;;7.25;;
25125;SDS011;13106;50.808;5.670;2023-02-28T01:21:53;15.20;;;7.75;;
25125;SDS011;13106;50.808;5.670;2023-02-28T01:24:19;10.50;;;8.00;;
25125;SDS011;13106;50.808;5.670;2023-02-28T01:26:45;9.07;;;7.93;;
25125;SDS011;13106;50.808;5.670;2023-02-28T01:29:11;11.05;;;8.13;;
25125;SDS011;13106;50.808;5.670;2023-02-28T01:31:37;10.32;;;7.05;;
25125;SDS011;13106;50.808;5.670;2023-02-28T01:34:03;9.93;;;7.13;;
25125;SDS011;13106;50.808;5.670;2023-02-28T01:36:29;9.10;;;7.15;;
25125;SDS011;13106;50.808;5.670;2023-02-28T01:38:55;11.52;;;7.55;;
25125;SDS011;13106;50.808;5.670;2023-02-28T01:41:25;14.65;;;8.02;;
25125;SDS011;13106;50.808;5.670;2023-02-28T01:43:56;11.43;;;6.88;;
25125;SDS011;13106;50.808;5.670;2023-02-28T01:46:22;9.98;;;7.57;;
25125;SDS011;13106;50.808;5.670;2023-02-28T01:48:56;9.85;;;7.20;;
25125;SDS011;13106;50.808;5.670;2023-02-28T01:51:28;9.13;;;7.18;;
25125;SDS011;13106;50.808;5.670;2023-02-28T01:53:59;10.30;;;7.22;;
25125;SDS011;13106;50.808;5.670;2023-02-28T01:56:27;10.38;;;7.22;;
25125;SDS011;13106;50.808;5.670;2023-02-28T01:58:54;8.85;;;7.45;;
25125;SDS011;13106;50.808;5.670;2023-02-28T02:01:21;10.68;;;7.45;;
25125;SDS011;13106;50.808;5.670;2023-02-28T02:03:52;9.88;;;7.78;;
25125;SDS011;13106;50.808;5.670;2023-02-28T02:06:20;12.45;;;8.10;;
25125;SDS011;13106;50.808;5.670;2023-02-28T02:08:46;10.85;;;7.10;;
25125;SDS011;13106;50.808;5.670;2023-02-28T02:11:12;11.40;;;7.70;;
25125;SDS011;13106;50.808;5.670;2023-02-28T02:21:34;9.50;;;6.82;;
25125;SDS011;13106;50.808;5.670;2023-02-28T02:37:26;9.02;;;7.05;;
25125;SDS011;13106;50.808;5.670;2023-02-28T02:40:00;10.07;;;6.65;;
25125;SDS011;13106;50.808;5.670;2023-02-28T02:42:35;9.38;;;7.43;;
25125;SDS011;13106;50.808;5.670;2023-02-28T02:45:07;9.57;;;7.80;;
25125;SDS011;13106;50.808;5.670;2023-02-28T02:47:35;8.63;;;7.32;;
25125;SDS011;13106;50.808;5.670;2023-02-28T02:50:04;9.95;;;7.05;;
25125;SDS011;13106;50.808;5.670;2023-02-28T02:52:34;10.48;;;6.90;;
25125;SDS011;13106;50.808;5.670;2023-02-28T02:55:02;8.90;;;6.93;;
25125;SDS011;13106;50.808;5.670;2023-02-28T02:57:30;9.25;;;6.75;;
25125;SDS011;13106;50.808;5.670;2023-02-28T02:59:57;9.02;;;6.82;;
25125;SDS011;13106;50.808;5.670;2023-02-28T03:02:24;8.27;;;6.70;;
25125;SDS011;13106;50.808;5.670;2023-02-28T03:04:52;12.80;;;6.95;;
25125;SDS011;13106;50.808;5.670;2023-02-28T03:07:19;9.90;;;7.30;;
25125;SDS011;13106;50.808;5.670;2023-02-28T03:09:55;12.43;;;8.00;;
25125;SDS011;13106;50.808;5.670;2023-02-28T03:12:22;9.43;;;7.30;;
25125;SDS011;13106;50.808;5.670;2023-02-28T03:22:35;9.32;;;6.53;;
25125;SDS011;13106;50.808;5.670;2023-02-28T03:27:39;19.33;;;10.43;;
25125;SDS011;13106;50.808;5.670;2023-02-28T03:32:46;20.52;;;11.35;;
25125;SDS011;13106;50.808;5.670;2023-02-28T03:35:23;20.63;;;11.32;;
25125;SDS011;13106;50.808;5.670;2023-02-28T03:37:52;18.45;;;9.25;;
25125;SDS011;13106;50.808;5.670;2023-02-28T03:40:23;21.20;;;10.63;;
25125;SDS011;13106;50.808;5.670;2023-02-28T03:42:51;13.70;;;8.27;;
25125;SDS011;13106;50.808;5.670;2023-02-28T03:45:21;13.18;;;7.97;;
25125;SDS011;13106;50.808;5.670;2023-02-28T03:47:52;19.52;;;10.30;;
25125;SDS011;13106;50.808;5.670;2023-02-28T03:50:24;11.77;;;7.50;;
25125;SDS011;13106;50.808;5.670;2023-02-28T03:52:52;9.85;;;7.45;;
25125;SDS011;13106;50.808;5.670;2023-02-28T03:55:19;10.40;;;7.03;;
25125;SDS011;13106;50.808;5.670;2023-02-28T03:58:06;10.45;;;8.43;;
25125;SDS011;13106;50.808;5.670;2023-02-28T04:00:35;11.98;;;7.80;;
25125;SDS011;13106;50.808;5.670;2023-02-28T04:03:03;10.88;;;8.18;;
25125;SDS011;13106;50.808;5.670;2023-02-28T04:05:29;16.15;;;8.57;;
25125;SDS011;13106;50.808;5.670;2023-02-28T04:08:05;15.77;;;8.50;;
25125;SDS011;13106;50.808;5.670;2023-02-28T04:10:32;15.35;;;9.55;;
25125;SDS011;13106;50.808;5.670;2023-02-28T04:12:58;13.95;;;9.35;;
25125;SDS011;13106;50.808;5.670;2023-02-28T04:15:24;12.88;;;8.07;;
25125;SDS011;13106;50.808;5.670;2023-02-28T04:17:52;11.35;;;7.63;;
25125;SDS011;13106;50.808;5.670;2023-02-28T04:20:18;10.82;;;7.97;;
25125;SDS011;13106;50.808;5.670;2023-02-28T04:22:44;13.85;;;8.55;;
25125;SDS011;13106;50.808;5.670;2023-02-28T04:25:10;12.43;;;7.70;;
25125;SDS011;13106;50.808;5.670;2023-02-28T04:27:36;11.15;;;7.60;;
25125;SDS011;13106;50.808;5.670;2023-02-28T04:30:02;12.35;;;8.45;;
25125;SDS011;13106;50.808;5.670;2023-02-28T04:32:28;10.82;;;7.78;;
25125;SDS011;13106;50.808;5.670;2023-02-28T04:34:54;10.45;;;7.85;;
25125;SDS011;13106;50.808;5.670;2023-02-28T04:37:20;9.35;;;8.38;;
25125;SDS011;13106;50.808;5.670;2023-02-28T04:39:52;13.70;;;8.38;;
25125;SDS011;13106;50.808;5.670;2023-02-28T04:42:18;17.75;;;8.30;;
25125;SDS011;13106;50.808;5.670;2023-02-28T04:44:44;11.48;;;7.93;;
25125;SDS011;13106;50.808;5.670;2023-02-28T04:47:10;9.93;;;8.27;;
25125;SDS011;13106;50.808;5.670;2023-02-28T04:49:36;11.30;;;8.15;;
25125;SDS011;13106;50.808;5.670;2023-02-28T04:52:03;14.18;;;8.43;;
25125;SDS011;13106;50.808;5.670;2023-02-28T04:54:29;14.13;;;8.80;;
25125;SDS011;13106;50.808;5.670;2023-02-28T04:56:55;11.50;;;8.07;;
25125;SDS011;13106;50.808;5.670;2023-02-28T04:59:22;15.93;;;9.57;;
25125;SDS011;13106;50.808;5.670;2023-02-28T05:01:48;13.52;;;9.15;;
25125;SDS011;13106;50.808;5.670;2023-02-28T05:04:14;13.05;;;8.98;;
25125;SDS011;13106;50.808;5.670;2023-02-28T05:06:40;15.23;;;10.80;;
25125;SDS011;13106;50.808;5.670;2023-02-28T05:09:07;10.70;;;8.27;;
25125;SDS011;13106;50.808;5.670;2023-02-28T05:11:33;13.45;;;9.68;;
25125;SDS011;13106;50.808;5.670;2023-02-28T05:14:00;13.38;;;9.02;;
25125;SDS011;13106;50.808;5.670;2023-02-28T05:16:26;15.88;;;9.70;;
25125;SDS011;13106;50.808;5.670;2023-02-28T05:18:52;12.82;;;9.57;;
25125;SDS011;13106;50.808;5.670;2023-02-28T05:21:35;12.00;;;9.00;;
25125;SDS011;13106;50.808;5.670;2023-02-28T05:24:02;15.93;;;9.25;;
25125;SDS011;13106;50.808;5.670;2023-02-28T05:26:29;14.40;;;9.38;;
25125;SDS011;13106;50.808;5.670;2023-02-28T05:28:55;12.68;;;9.60;;
25125;SDS011;13106;50.808;5.670;2023-02-28T05:31:21;14.35;;;8.75;;
25125;SDS011;13106;50.808;5.670;2023-02-28T05:33:47;15.75;;;9.20;;
25125;SDS011;13106;50.808;5.670;2023-02-28T05:36:13;15.20;;;9.05;;
25125;SDS011;13106;50.808;5.670;2023-02-28T05:38:40;13.18;;;9.52;;
25125;SDS011;13106;50.808;5.670;2023-02-28T05:41:09;16.42;;;9.35;;
25125;SDS011;13106;50.808;5.670;2023-02-28T05:43:35;14.73;;;9.37;;
25125;SDS011;13106;50.808;5.670;2023-02-28T05:46:02;12.68;;;8.43;;
25125;SDS011;13106;50.808;5.670;2023-02-28T05:48:29;13.63;;;9.35;;
25125;SDS011;13106;50.808;5.670;2023-02-28T05:50:56;13.63;;;9.60;;
25125;SDS011;13106;50.808;5.670;2023-02-28T05:53:22;13.32;;;8.93;;
25125;SDS011;13106;50.808;5.670;2023-02-28T05:55:48;16.05;;;9.50;;
25125;SDS011;13106;50.808;5.670;2023-02-28T05:58:14;12.90;;;8.65;;
25125;SDS011;13106;50.808;5.670;2023-02-28T06:00:40;13.88;;;9.95;;
25125;SDS011;13106;50.808;5.670;2023-02-28T06:03:06;17.15;;;10.07;;
25125;SDS011;13106;50.808;5.670;2023-02-28T06:05:32;16.67;;;10.30;;
25125;SDS011;13106;50.808;5.670;2023-02-28T06:07:58;12.38;;;9.65;;
25125;SDS011;13106;50.808;5.670;2023-02-28T06:10:24;12.38;;;9.95;;
25125;SDS011;13106;50.808;5.670;2023-02-28T06:12:50;13.48;;;10.30;;
25125;SDS011;13106;50.808;5.670;2023-02-28T06:15:16;12.90;;;9.40;;
25125;SDS011;13106;50.808;5.670;2023-02-28T06:17:43;14.30;;;9.90;;
25125;SDS011;13106;50.808;5.670;2023-02-28T06:20:09;11.68;;;10.48;;
25125;SDS011;13106;50.808;5.670;2023-02-28T06:22:37;16.40;;;10.65;;
25125;SDS011;13106;50.808;5.670;2023-02-28T06:25:04;14.90;;;10.30;;
25125;SDS011;13106;50.808;5.670;2023-02-28T06:27:30;13.77;;;10.23;;
25125;SDS011;13106;50.808;5.670;2023-02-28T06:29:56;11.73;;;9.15;;
25125;SDS011;13106;50.808;5.670;2023-02-28T06:32:23;12.57;;;9.20;;
25125;SDS011;13106;50.808;5.670;2023-02-28T06:34:49;13.25;;;10.18;;
25125;SDS011;13106;50.808;5.670;2023-02-28T06:37:15;14.15;;;10.45;;
25125;SDS011;13106;50.808;5.670;2023-02-28T06:39:41;13.50;;;10.10;;
25125;SDS011;13106;50.808;5.670;2023-02-28T06:42:07;19.05;;;10.57;;
25125;SDS011;13106;50.808;5.670;2023-02-28T06:44:33;11.63;;;9.80;;
25125;SDS011;13106;50.808;5.670;2023-02-28T06:47:03;12.50;;;10.63;;
25125;SDS011;13106;50.808;5.670;2023-02-28T06:49:33;15.43;;;10.18;;
25125;SDS011;13106;50.808;5.670;2023-02-28T06:54:26;12.40;;;9.82;;
25125;SDS011;13106;50.808;5.670;2023-02-28T06:56:52;10.18;;;9.13;;
25125;SDS011;13106;50.808;5.670;2023-02-28T06:59:19;17.92;;;10.60;;
25125;SDS011;13106;50.808;5.670;2023-02-28T07:01:45;16.85;;;10.10;;
25125;SDS011;13106;50.808;5.670;2023-02-28T07:04:11;11.75;;;9.32;;
25125;SDS011;13106;50.808;5.670;2023-02-28T07:06:38;13.40;;;9.07;;
25125;SDS011;13106;50.808;5.670;2023-02-28T07:09:04;18.33;;;9.05;;
25125;SDS011;13106;50.808;5.670;2023-02-28T07:11:30;15.07;;;10.38;;
25125;SDS011;13106;50.808;5.670;2023-02-28T07:13:57;10.48;;;9.32;;
25125;SDS011;13106;50.808;5.670;2023-02-28T07:16:24;22.42;;;10.15;;
25125;SDS011;13106;50.808;5.670;2023-02-28T07:18:53;12.52;;;9.38;;
25125;SDS011;13106;50.808;5.670;2023-02-28T07:21:20;11.65;;;9.32;;
25125;SDS011;13106;50.808;5.670;2023-02-28T07:23:46;11.13;;;8.98;;
25125;SDS011;13106;50.808;5.670;2023-02-28T07:26:13;9.55;;;8.52;;
25125;SDS011;13106;50.808;5.670;2023-02-28T07:28:40;12.27;;;9.27;;
25125;SDS011;13106;50.808;5.670;2023-02-28T07:31:07;13.23;;;8.57;;
25125;SDS011;13106;50.808;5.670;2023-02-28T07:33:34;11.50;;;8.88;;
25125;SDS011;13106;50.808;5.670;2023-02-28T07:36:01;14.65;;;8.50;;
25125;SDS011;13106;50.808;5.670;2023-02-28T07:38:27;14.85;;;8.43;;
25125;SDS011;13106;50.808;5.670;2023-02-28T07:40:53;10.82;;;8.23;;
25125;SDS011;13106;50.808;5.670;2023-02-28T07:43:19;13.20;;;8.25;;
25125;SDS011;13106;50.808;5.670;2023-02-28T07:45:45;11.90;;;8.13;;
25125;SDS011;13106;50.808;5.670;2023-02-28T07:48:11;8.57;;;7.68;;
25125;SDS011;13106;50.808;5.670;2023-02-28T07:50:37;14.43;;;7.93;;
25125;SDS011;13106;50.808;5.670;2023-02-28T07:53:03;10.40;;;7.70;;
25125;SDS011;13106;50.808;5.670;2023-02-28T07:55:29;10.35;;;8.25;;
25125;SDS011;13106;50.808;5.670;2023-02-28T07:57:56;10.45;;;8.18;;
25125;SDS011;13106;50.808;5.670;2023-02-28T08:00:22;10.90;;;8.10;;
25125;SDS011;13106;50.808;5.670;2023-02-28T08:02:49;8.75;;;7.85;;
25125;SDS011;13106;50.808;5.670;2023-02-28T08:05:16;9.52;;;7.53;;
25125;SDS011;13106;50.808;5.670;2023-02-28T08:07:42;8.93;;;7.47;;
25125;SDS011;13106;50.808;5.670;2023-02-28T08:10:08;9.52;;;6.97;;
25125;SDS011;13106;50.808;5.670;2023-02-28T08:12:35;9.43;;;7.53;;
25125;SDS011;13106;50.808;5.670;2023-02-28T08:15:01;8.38;;;7.10;;
25125;SDS011;13106;50.808;5.670;2023-02-28T08:17:27;9.43;;;7.50;;
25125;SDS011;13106;50.808;5.670;2023-02-28T08:19:53;8.65;;;7.60;;
25125;SDS011;13106;50.808;5.670;2023-02-28T08:22:20;9.05;;;7.00;;
25125;SDS011;13106;50.808;5.670;2023-02-28T08:24:46;7.93;;;6.97;;
25125;SDS011;13106;50.808;5.670;2023-02-28T08:27:12;9.80;;;6.90;;
25125;SDS011;13106;50.808;5.670;2023-02-28T08:29:38;8.32;;;6.63;;
25125;SDS011;13106;50.808;5.670;2023-02-28T08:32:05;8.30;;;6.88;;
25125;SDS011;13106;50.808;5.670;2023-02-28T08:34:31;8.40;;;7.00;;
25125;SDS011;13106;50.808;5.670;2023-02-28T08:36:57;9.80;;;7.35;;
25125;SDS011;13106;50.808;5.670;2023-02-28T08:39:24;8.88;;;6.80;;
25125;SDS011;13106;50.808;5.670;2023-02-28T08:41:50;10.73;;;6.70;;
25125;SDS011;13106;50.808;5.670;2023-02-28T08:44:16;13.32;;;8.15;;
25125;SDS011;13106;50.808;5.670;2023-02-28T08:46:42;8.45;;;6.03;;
25125;SDS011;13106;50.808;5.670;2023-02-28T08:49:09;10.13;;;6.30;;
25125;SDS011;13106;50.808;5.670;2023-02-28T08:51:35;6.18;;;5.00;;
25125;SDS011;13106;50.808;5.670;2023-02-28T08:54:03;11.20;;;5.85;;
25125;SDS011;13106;50.808;5.670;2023-02-28T08:56:29;8.40;;;4.35;;
25125;SDS011;13106;50.808;5.670;2023-02-28T08:58:56;10.93;;;5.28;;
25125;SDS011;13106;50.808;5.670;2023-02-28T09:01:23;10.60;;;5.82;;
25125;SDS011;13106;50.808;5.670;2023-02-28T09:03:50;11.73;;;5.53;;
25125;SDS011;13106;50.808;5.670;2023-02-28T09:06:17;7.43;;;6.32;;
25125;SDS011;13106;50.808;5.670;2023-02-28T09:08:43;7.80;;;5.10;;
25125;SDS011;13106;50.808;5.670;2023-02-28T09:11:09;7.70;;;5.28;;
25125;SDS011;13106;50.808;5.670;2023-02-28T09:13:35;7.28;;;6.57;;
25125;SDS011;13106;50.808;5.670;2023-02-28T09:16:02;7.75;;;6.90;;
25125;SDS011;13106;50.808;5.670;2023-02-28T09:18:29;7.40;;;5.55;;
25125;SDS011;13106;50.808;5.670;2023-02-28T09:20:55;8.50;;;4.82;;
25125;SDS011;13106;50.808;5.670;2023-02-28T09:23:21;6.15;;;5.55;;
25125;SDS011;13106;50.808;5.670;2023-02-28T09:25:48;6.82;;;5.75;;
25125;SDS011;13106;50.808;5.670;2023-02-28T09:28:14;8.77;;;6.57;;
25125;SDS011;13106;50.808;5.670;2023-02-28T09:30:47;9.02;;;8.25;;
25125;SDS011;13106;50.808;5.670;2023-02-28T09:33:13;8.57;;;6.22;;
25125;SDS011;13106;50.808;5.670;2023-02-28T09:35:40;5.55;;;3.58;;
25125;SDS011;13106;50.808;5.670;2023-02-28T09:38:06;6.93;;;3.67;;
25125;SDS011;13106;50.808;5.670;2023-02-28T09:40:34;5.25;;;4.43;;
25125;SDS011;13106;50.808;5.670;2023-02-28T09:43:01;6.53;;;3.78;;
25125;SDS011;13106;50.808;5.670;2023-02-28T09:45:39;6.30;;;3.38;;
25125;SDS011;13106;50.808;5.670;2023-02-28T09:48:17;5.55;;;3.15;;
25125;SDS011;13106;50.808;5.670;2023-02-28T09:50:46;6.43;;;3.53;;
25125;SDS011;13106;50.808;5.670;2023-02-28T09:53:20;4.68;;;3.08;;
25125;SDS011;13106;50.808;5.670;2023-02-28T09:56:09;4.15;;;3.00;;
25125;SDS011;13106;50.808;5.670;2023-02-28T09:58:47;4.80;;;3.17;;
25125;SDS011;13106;50.808;5.670;2023-02-28T10:03:52;4.20;;;2.90;;
25125;SDS011;13106;50.808;5.670;2023-02-28T10:06:21;5.40;;;2.83;;
25125;SDS011;13106;50.808;5.670;2023-02-28T10:11:23;3.28;;;2.97;;
25125;SDS011;13106;50.808;5.670;2023-02-28T10:16:20;3.20;;;2.92;;
25125;SDS011;13106;50.808;5.670;2023-02-28T10:18:52;6.72;;;3.40;;
25125;SDS011;13106;50.808;5.670;2023-02-28T10:21:37;6.63;;;2.63;;
25125;SDS011;13106;50.808;5.670;2023-02-28T10:24:12;4.88;;;3.15;;
25125;SDS011;13106;50.808;5.670;2023-02-28T10:26:41;5.65;;;2.90;;
25125;SDS011;13106;50.808;5.670;2023-02-28T10:29:09;4.20;;;3.08;;
25125;SDS011;13106;50.808;5.670;2023-02-28T10:31:36;4.13;;;2.38;;
25125;SDS011;13106;50.808;5.670;2023-02-28T10:34:02;3.90;;;2.50;;
25125;SDS011;13106;50.808;5.670;2023-02-28T10:36:29;5.07;;;3.35;;
25125;SDS011;13106;50.808;5.670;2023-02-28T10:38:55;4.45;;;2.22;;
25125;SDS011;13106;50.808;5.670;2023-02-28T10:41:31;3.03;;;2.60;;
25125;SDS011;13106;50.808;5.670;2023-02-28T10:44:12;3.25;;;2.20;;
25125;SDS011;13106;50.808;5.670;2023-02-28T10:46:39;3.35;;;1.98;;
25125;SDS011;13106;50.808;5.670;2023-02-28T10:49:07;5.38;;;2.05;;
25125;SDS011;13106;50.808;5.670;2023-02-28T10:51:38;4.07;;;2.13;;
25125;SDS011;13106;50.808;5.670;2023-02-28T10:54:05;3.97;;;2.30;;
25125;SDS011;13106;50.808;5.670;2023-02-28T10:56:31;3.63;;;2.45;;
25125;SDS011;13106;50.808;5.670;2023-02-28T11:01:40;6.03;;;2.53;;
25125;SDS011;13106;50.808;5.670;2023-02-28T11:06:33;4.47;;;4.18;;
25125;SDS011;13106;50.808;5.670;2023-02-28T11:09:01;4.63;;;3.05;;
25125;SDS011;13106;50.808;5.670;2023-02-28T11:11:28;3.08;;;2.67;;
25125;SDS011;13106;50.808;5.670;2023-02-28T11:13:57;4.97;;;2.60;;
25125;SDS011;13106;50.808;5.670;2023-02-28T11:16:34;4.03;;;2.22;;
25125;SDS011;13106;50.808;5.670;2023-02-28T11:19:02;4.22;;;2.95;;
25125;SDS011;13106;50.808;5.670;2023-02-28T11:21:31;3.30;;;2.97;;
25125;SDS011;13106;50.808;5.670;2023-02-28T11:26:46;4.00;;;2.25;;
25125;SDS011;13106;50.808;5.670;2023-02-28T11:29:21;5.22;;;3.55;;
25125;SDS011;13106;50.808;5.670;2023-02-28T11:32:03;5.38;;;3.10;;
25125;SDS011;13106;50.808;5.670;2023-02-28T11:34:30;3.13;;;1.80;;
25125;SDS011;13106;50.808;5.670;2023-02-28T11:36:57;3.13;;;2.00;;
25125;SDS011;13106;50.808;5.670;2023-02-28T11:39:25;2.47;;;1.92;;
25125;SDS011;13106;50.808;5.670;2023-02-28T11:42:04;2.70;;;2.00;;
25125;SDS011;13106;50.808;5.670;2023-02-28T11:47:32;2.85;;;2.28;;
25125;SDS011;13106;50.808;5.670;2023-02-28T12:00:28;2.80;;;2.00;;
25125;SDS011;13106;50.808;5.670;2023-02-28T12:05:36;2.45;;;2.15;;
25125;SDS011;13106;50.808;5.670;2023-02-28T12:18:27;3.85;;;2.85;;
25125;SDS011;13106;50.808;5.670;2023-02-28T12:21:01;2.88;;;2.25;;
25125;SDS011;13106;50.808;5.670;2023-02-28T12:28:53;3.03;;;1.77;;
25125;SDS011;13106;50.808;5.670;2023-02-28T12:31:29;5.55;;;2.78;;
25125;SDS011;13106;50.808;5.670;2023-02-28T12:33:59;4.43;;;3.45;;
25125;SDS011;13106;50.808;5.670;2023-02-28T12:36:26;3.05;;;2.63;;
25125;SDS011;13106;50.808;5.670;2023-02-28T12:38:55;2.95;;;2.40;;
25125;SDS011;13106;50.808;5.670;2023-02-28T12:41:27;5.72;;;2.20;;
25125;SDS011;13106;50.808;5.670;2023-02-28T12:44:00;4.35;;;2.90;;
25125;SDS011;13106;50.808;5.670;2023-02-28T12:46:34;3.13;;;2.03;;
25125;SDS011;13106;50.808;5.670;2023-02-28T12:49:10;3.63;;;2.40;;
25125;SDS011;13106;50.808;5.670;2023-02-28T12:51:38;4.38;;;2.38;;
25125;SDS011;13106;50.808;5.670;2023-02-28T12:54:07;3.85;;;2.13;;
25125;SDS011;13106;50.808;5.670;2023-02-28T12:59:10;4.05;;;2.35;;
25125;SDS011;13106;50.808;5.670;2023-02-28T13:04:14;3.00;;;2.15;;
25125;SDS011;13106;50.808;5.670;2023-02-28T13:09:27;4.38;;;2.60;;
25125;SDS011;13106;50.808;5.670;2023-02-28T13:11:54;4.40;;;2.42;;
25125;SDS011;13106;50.808;5.670;2023-02-28T13:19:16;3.00;;;2.20;;
25125;SDS011;13106;50.808;5.670;2023-02-28T13:21:43;5.13;;;2.50;;
25125;SDS011;13106;50.808;5.670;2023-02-28T13:24:10;2.67;;;2.45;;
25125;SDS011;13106;50.808;5.670;2023-02-28T13:34:26;2.88;;;2.38;;
25125;SDS011;13106;50.808;5.670;2023-02-28T13:36:53;3.80;;;2.42;;
25125;SDS011;13106;50.808;5.670;2023-02-28T13:42:47;2.83;;;2.42;;
25125;SDS011;13106;50.808;5.670;2023-02-28T13:47:44;3.42;;;2.45;;
25125;SDS011;13106;50.808;5.670;2023-02-28T13:55:21;3.53;;;2.20;;
25125;SDS011;13106;50.808;5.670;2023-02-28T14:05:42;4.93;;;2.90;;
25125;SDS011;13106;50.808;5.670;2023-02-28T14:08:16;3.38;;;2.50;;
25125;SDS011;13106;50.808;5.670;2023-02-28T14:10:44;5.50;;;2.90;;
25125;SDS011;13106;50.808;5.670;2023-02-28T14:18:26;3.83;;;2.60;;
25125;SDS011;13106;50.808;5.670;2023-02-28T14:21:38;3.83;;;2.38;;
25125;SDS011;13106;50.808;5.670;2023-02-28T14:31:50;2.63;;;2.25;;
25125;SDS011;13106;50.808;5.670;2023-02-28T14:36:50;4.75;;;2.75;;
25125;SDS011;13106;50.808;5.670;2023-02-28T14:39:20;5.82;;;3.05;;
25125;SDS011;13106;50.808;5.670;2023-02-28T14:41:47;4.82;;;3.05;;
25125;SDS011;13106;50.808;5.670;2023-02-28T14:46:40;4.68;;;2.80;;
25125;SDS011;13106;50.808;5.670;2023-02-28T14:49:12;3.58;;;2.80;;
25125;SDS011;13106;50.808;5.670;2023-02-28T14:51:39;5.05;;;2.65;;
25125;SDS011;13106;50.808;5.670;2023-02-28T14:54:05;3.17;;;2.63;;
25125;SDS011;13106;50.808;5.670;2023-02-28T14:56:35;3.97;;;2.55;;
25125;SDS011;13106;50.808;5.670;2023-02-28T14:59:02;5.50;;;3.03;;
25125;SDS011;13106;50.808;5.670;2023-02-28T15:01:28;5.68;;;3.03;;
25125;SDS011;13106;50.808;5.670;2023-02-28T15:03:58;3.58;;;2.75;;
25125;SDS011;13106;50.808;5.670;2023-02-28T15:06:25;4.80;;;2.90;;
25125;SDS011;13106;50.808;5.670;2023-02-28T15:09:11;4.90;;;3.10;;
25125;SDS011;13106;50.808;5.670;2023-02-28T15:11:37;6.40;;;2.75;;
25125;SDS011;13106;50.808;5.670;2023-02-28T15:14:05;4.53;;;3.22;;
25125;SDS011;13106;50.808;5.670;2023-02-28T15:19:02;4.78;;;4.38;;
25125;SDS011;13106;50.808;5.670;2023-02-28T15:21:32;4.50;;;3.35;;
25125;SDS011;13106;50.808;5.670;2023-02-28T15:24:00;5.07;;;3.03;;
25125;SDS011;13106;50.808;5.670;2023-02-28T15:26:27;5.28;;;2.80;;
25125;SDS011;13106;50.808;5.670;2023-02-28T15:29:04;7.13;;;4.10;;
25125;SDS011;13106;50.808;5.670;2023-02-28T15:31:31;6.82;;;3.63;;
25125;SDS011;13106;50.808;5.670;2023-02-28T15:34:02;5.00;;;4.50;;
25125;SDS011;13106;50.808;5.670;2023-02-28T15:36:29;5.50;;;4.32;;
25125;SDS011;13106;50.808;5.670;2023-02-28T15:38:58;5.85;;;4.47;;
25125;SDS011;13106;50.808;5.670;2023-02-28T15:41:31;5.75;;;3.30;;
25125;SDS011;13106;50.808;5.670;2023-02-28T15:46:43;3.78;;;3.08;;
25125;SDS011;13106;50.808;5.670;2023-02-28T15:49:16;3.85;;;3.30;;
25125;SDS011;13106;50.808;5.670;2023-02-28T15:51:43;8.35;;;3.40;;
25125;SDS011;13106;50.808;5.670;2023-02-28T15:54:12;5.50;;;3.63;;
25125;SDS011;13106;50.808;5.670;2023-02-28T15:56:44;5.00;;;3.28;;
25125;SDS011;13106;50.808;5.670;2023-02-28T15:59:14;5.78;;;3.25;;
25125;SDS011;13106;50.808;5.670;2023-02-28T16:01:41;7.50;;;3.55;;
25125;SDS011;13106;50.808;5.670;2023-02-28T16:04:17;5.38;;;3.20;;
25125;SDS011;13106;50.808;5.670;2023-02-28T16:06:44;4.57;;;3.40;;
25125;SDS011;13106;50.808;5.670;2023-02-28T16:09:14;5.35;;;3.55;;
25125;SDS011;13106;50.808;5.670;2023-02-28T16:11:42;6.88;;;4.00;;
25125;SDS011;13106;50.808;5.670;2023-02-28T16:14:26;5.88;;;3.60;;
25125;SDS011;13106;50.808;5.670;2023-02-28T16:16:56;5.55;;;3.50;;
25125;SDS011;13106;50.808;5.670;2023-02-28T16:19:23;4.00;;;3.55;;
25125;SDS011;13106;50.808;5.670;2023-02-28T16:21:49;3.85;;;3.33;;
25125;SDS011;13106;50.808;5.670;2023-02-28T16:24:16;6.20;;;3.55;;
25125;SDS011;13106;50.808;5.670;2023-02-28T16:26:42;6.18;;;3.85;;
25125;SDS011;13106;50.808;5.670;2023-02-28T16:29:13;4.78;;;3.40;;
25125;SDS011;13106;50.808;5.670;2023-02-28T16:31:41;4.90;;;3.25;;
25125;SDS011;13106;50.808;5.670;2023-02-28T16:34:07;5.60;;;3.63;;
25125;SDS011;13106;50.808;5.670;2023-02-28T16:36:33;5.07;;;3.15;;
25125;SDS011;13106;50.808;5.670;2023-02-28T16:38:59;4.55;;;3.30;;
25125;SDS011;13106;50.808;5.670;2023-02-28T16:41:27;6.07;;;3.70;;
25125;SDS011;13106;50.808;5.670;2023-02-28T16:43:54;6.25;;;3.40;;
25125;SDS011;13106;50.808;5.670;2023-02-28T16:46:26;7.40;;;3.50;;
25125;SDS011;13106;50.808;5.670;2023-02-28T16:48:53;6.53;;;3.20;;
25125;SDS011;13106;50.808;5.670;2023-02-28T16:51:19;4.18;;;3.10;;
25125;SDS011;13106;50.808;5.670;2023-02-28T16:53:45;5.95;;;3.30;;
25125;SDS011;13106;50.808;5.670;2023-02-28T16:56:21;5.13;;;3.17;;
25125;SDS011;13106;50.808;5.670;2023-02-28T16:58:48;4.72;;;3.30;;
25125;SDS011;13106;50.808;5.670;2023-02-28T17:01:15;5.93;;;2.95;;
25125;SDS011;13106;50.808;5.670;2023-02-28T17:03:41;4.80;;;3.38;;
25125;SDS011;13106;50.808;5.670;2023-02-28T17:06:18;4.20;;;3.35;;
25125;SDS011;13106;50.808;5.670;2023-02-28T17:08:45;3.85;;;3.38;;
25125;SDS011;13106;50.808;5.670;2023-02-28T17:11:11;6.22;;;3.13;;
25125;SDS011;13106;50.808;5.670;2023-02-28T17:13:37;5.05;;;4.53;;